sensor_id;sensor_type;location;lat;lon;timestamp;temperature;humidity
8709;DHT22;4391;48.678;9.280;2022-10-16T00:00:38;14.70;99.90
8709;DHT22;4391;48.678;9.280;2022-10-16T00:03:07;14.70;99.90
8709;DHT22;4391;48.678;9.280;2022-10-16T00:05:38;14.70;99.90
8709;DHT22;4391;48.678;9.280;2022-10-16T00:08:05;14.70;99.90
8709;DHT22;4391;48.678;9.280;2022-10-16T00:10:32;14.60;99.90
8709;DHT22;4391;48.678;9.280;2022-10-16T00:12:58;14.60;99.90
8709;DHT22;4391;48.678;9.280;2022-10-16T00:15:25;14.50;99.90
8709;DHT22;4391;48.678;9.280;2022-10-16T00:17:52;14.40;99.90
8709;DHT22;4391;48.678;9.280;2022-10-16T00:20:20;14.40;99.90
8709;DHT22;4391;48.678;9.280;2022-10-16T00:22:47;14.30;99.90
8709;DHT22;4391;48.678;9.280;2022-10-16T00:25:14;14.20;99.90
8709;DHT22;4391;48.678;9.280;2022-10-16T00:27:41;14.20;99.90
8709;DHT22;4391;48.678;9.280;2022-10-16T00:30:08;14.10;99.90
8709;DHT22;4391;48.678;9.280;2022-10-16T00:32:35;14.00;99.90
8709;DHT22;4391;48.678;9.280;2022-10-16T00:35:02;14.00;99.90
8709;DHT22;4391;48.678;9.280;2022-10-16T00:37:30;14.00;99.90
8709;DHT22;4391;48.678;9.280;2022-10-16T00:39:57;14.00;99.90
8709;DHT22;4391;48.678;9.280;2022-10-16T00:42:24;14.00;99.90
8709;DHT22;4391;48.678;9.280;2022-10-16T00:44:53;14.10;99.90
8709;DHT22;4391;48.678;9.280;2022-10-16T00:47:25;14.00;99.90
8709;DHT22;4391;48.678;9.280;2022-10-16T00:49:57;14.00;99.90
8709;DHT22;4391;48.678;9.280;2022-10-16T00:52:25;13.90;99.90
8709;DHT22;4391;48.678;9.280;2022-10-16T00:54:53;13.80;99.90
8709;DHT22;4391;48.678;9.280;2022-10-16T00:57:21;13.80;99.90
8709;DHT22;4391;48.678;9.280;2022-10-16T00:59:48;13.80;99.90
8709;DHT22;4391;48.678;9.280;2022-10-16T01:02:16;13.80;99.90
8709;DHT22;4391;48.678;9.280;2022-10-16T01:04:44;13.90;99.90
8709;DHT22;4391;48.678;9.280;2022-10-16T01:07:16;13.90;99.90
8709;DHT22;4391;48.678;9.280;2022-10-16T01:09:59;13.90;99.90
8709;DHT22;4391;48.678;9.280;2022-10-16T01:12:36;13.90;99.90
8709;DHT22;4391;48.678;9.280;2022-10-16T01:15:10;13.90;99.90
8709;DHT22;4391;48.678;9.280;2022-10-16T01:17:41;13.80;99.90
8709;DHT22;4391;48.678;9.280;2022-10-16T01:20:16;13.80;99.90
8709;DHT22;4391;48.678;9.280;2022-10-16T01:22:56;13.80;99.90
8709;DHT22;4391;48.678;9.280;2022-10-16T01:25:36;13.70;99.90
8709;DHT22;4391;48.678;9.280;2022-10-16T01:28:09;13.70;99.90
8709;DHT22;4391;48.678;9.280;2022-10-16T01:30:38;13.70;99.90
8709;DHT22;4391;48.678;9.280;2022-10-16T01:33:10;13.70;99.90
8709;DHT22;4391;48.678;9.280;2022-10-16T01:35:42;13.70;99.90
8709;DHT22;4391;48.678;9.280;2022-10-16T01:38:16;13.60;99.90
8709;DHT22;4391;48.678;9.280;2022-10-16T01:40:46;13.60;99.90
8709;DHT22;4391;48.678;9.280;2022-10-16T01:43:19;13.50;99.90
8709;DHT22;4391;48.678;9.280;2022-10-16T01:45:47;13.50;99.90
8709;DHT22;4391;48.678;9.280;2022-10-16T01:48:17;13.40;99.90
8709;DHT22;4391;48.678;9.280;2022-10-16T01:50:52;13.40;99.90
8709;DHT22;4391;48.678;9.280;2022-10-16T01:53:22;13.30;99.90
8709;DHT22;4391;48.678;9.280;2022-10-16T01:55:50;13.40;99.90
8709;DHT22;4391;48.678;9.280;2022-10-16T01:58:21;13.40;99.90
8709;DHT22;4391;48.678;9.280;2022-10-16T02:00:50;13.40;99.90
8709;DHT22;4391;48.678;9.280;2022-10-16T02:03:19;13.40;99.90
8709;DHT22;4391;48.678;9.280;2022-10-16T02:05:49;13.40;99.90
8709;DHT22;4391;48.678;9.280;2022-10-16T02:08:17;13.40;99.90
8709;DHT22;4391;48.678;9.280;2022-10-16T02:10:44;13.40;99.90
8709;DHT22;4391;48.678;9.280;2022-10-16T02:13:17;13.40;99.90
8709;DHT22;4391;48.678;9.280;2022-10-16T02:15:45;13.50;99.90
8709;DHT22;4391;48.678;9.280;2022-10-16T02:18:12;13.50;99.90
8709;DHT22;4391;48.678;9.280;2022-10-16T02:20:46;13.50;99.90
8709;DHT22;4391;48.678;9.280;2022-10-16T02:23:27;13.50;99.90
8709;DHT22;4391;48.678;9.280;2022-10-16T02:25:57;13.50;99.90
8709;DHT22;4391;48.678;9.280;2022-10-16T02:28:28;13.50;99.90
8709;DHT22;4391;48.678;9.280;2022-10-16T02:30:59;13.50;99.90
8709;DHT22;4391;48.678;9.280;2022-10-16T02:33:29;13.50;99.90
8709;DHT22;4391;48.678;9.280;2022-10-16T02:35:57;13.50;99.90
8709;DHT22;4391;48.678;9.280;2022-10-16T02:38:25;13.50;99.90
8709;DHT22;4391;48.678;9.280;2022-10-16T02:40:52;13.50;99.90
8709;DHT22;4391;48.678;9.280;2022-10-16T02:43:19;13.50;99.90
8709;DHT22;4391;48.678;9.280;2022-10-16T02:45:46;13.60;99.90
8709;DHT22;4391;48.678;9.280;2022-10-16T02:48:14;13.60;99.90
8709;DHT22;4391;48.678;9.280;2022-10-16T02:50:41;13.60;99.90
8709;DHT22;4391;48.678;9.280;2022-10-16T02:53:07;13.60;99.90
8709;DHT22;4391;48.678;9.280;2022-10-16T02:55:34;13.60;99.90
8709;DHT22;4391;48.678;9.280;2022-10-16T02:58:01;13.50;99.90
8709;DHT22;4391;48.678;9.280;2022-10-16T03:00:28;13.50;99.90
8709;DHT22;4391;48.678;9.280;2022-10-16T03:02:55;13.50;99.90
8709;DHT22;4391;48.678;9.280;2022-10-16T03:05:23;13.50;99.90
8709;DHT22;4391;48.678;9.280;2022-10-16T03:07:49;13.40;99.90
8709;DHT22;4391;48.678;9.280;2022-10-16T03:10:18;13.40;99.90
8709;DHT22;4391;48.678;9.280;2022-10-16T03:12:45;13.40;99.90
8709;DHT22;4391;48.678;9.280;2022-10-16T03:15:11;13.30;99.90
8709;DHT22;4391;48.678;9.280;2022-10-16T03:17:38;13.30;99.90
8709;DHT22;4391;48.678;9.280;2022-10-16T03:20:06;13.30;99.90
8709;DHT22;4391;48.678;9.280;2022-10-16T03:22:34;13.30;99.90
8709;DHT22;4391;48.678;9.280;2022-10-16T03:25:01;13.30;99.90
8709;DHT22;4391;48.678;9.280;2022-10-16T03:27:27;13.20;99.90
8709;DHT22;4391;48.678;9.280;2022-10-16T03:29:54;13.20;99.90
8709;DHT22;4391;48.678;9.280;2022-10-16T03:32:21;13.20;99.90
8709;DHT22;4391;48.678;9.280;2022-10-16T03:34:50;13.20;99.90
8709;DHT22;4391;48.678;9.280;2022-10-16T03:37:18;13.20;99.90
8709;DHT22;4391;48.678;9.280;2022-10-16T03:39:46;13.20;99.90
8709;DHT22;4391;48.678;9.280;2022-10-16T03:42:13;13.10;99.90
8709;DHT22;4391;48.678;9.280;2022-10-16T03:44:40;13.10;99.90
8709;DHT22;4391;48.678;9.280;2022-10-16T03:47:06;13.10;99.90
8709;DHT22;4391;48.678;9.280;2022-10-16T03:49:33;13.10;99.90
8709;DHT22;4391;48.678;9.280;2022-10-16T03:52:00;13.10;99.90
8709;DHT22;4391;48.678;9.280;2022-10-16T03:54:27;13.20;99.90
8709;DHT22;4391;48.678;9.280;2022-10-16T03:56:55;13.20;99.90
8709;DHT22;4391;48.678;9.280;2022-10-16T03:59:21;13.20;99.90
8709;DHT22;4391;48.678;9.280;2022-10-16T04:01:48;13.20;99.90
8709;DHT22;4391;48.678;9.280;2022-10-16T04:04:15;13.20;99.90
8709;DHT22;4391;48.678;9.280;2022-10-16T04:06:42;13.20;99.90
8709;DHT22;4391;48.678;9.280;2022-10-16T04:09:08;13.10;99.90
8709;DHT22;4391;48.678;9.280;2022-10-16T04:11:35;13.10;99.90
8709;DHT22;4391;48.678;9.280;2022-10-16T04:14:03;13.10;99.90
8709;DHT22;4391;48.678;9.280;2022-10-16T04:16:30;13.10;99.90
8709;DHT22;4391;48.678;9.280;2022-10-16T04:18:57;13.10;99.90
8709;DHT22;4391;48.678;9.280;2022-10-16T04:21:23;13.00;99.90
8709;DHT22;4391;48.678;9.280;2022-10-16T04:23:50;13.00;99.90
8709;DHT22;4391;48.678;9.280;2022-10-16T04:26:17;13.10;99.90
8709;DHT22;4391;48.678;9.280;2022-10-16T04:28:44;13.10;99.90
8709;DHT22;4391;48.678;9.280;2022-10-16T04:31:12;13.00;99.90
8709;DHT22;4391;48.678;9.280;2022-10-16T04:33:40;13.10;99.90
8709;DHT22;4391;48.678;9.280;2022-10-16T04:36:08;13.00;99.90
8709;DHT22;4391;48.678;9.280;2022-10-16T04:38:35;13.00;99.90
8709;DHT22;4391;48.678;9.280;2022-10-16T04:41:03;13.00;99.90
8709;DHT22;4391;48.678;9.280;2022-10-16T04:43:29;13.10;99.90
8709;DHT22;4391;48.678;9.280;2022-10-16T04:45:56;13.20;99.90
8709;DHT22;4391;48.678;9.280;2022-10-16T04:48:24;13.20;99.90
8709;DHT22;4391;48.678;9.280;2022-10-16T04:50:51;13.20;99.90
8709;DHT22;4391;48.678;9.280;2022-10-16T04:53:18;13.20;99.90
8709;DHT22;4391;48.678;9.280;2022-10-16T04:55:45;13.20;99.90
8709;DHT22;4391;48.678;9.280;2022-10-16T04:58:11;13.20;99.90
8709;DHT22;4391;48.678;9.280;2022-10-16T05:00:38;13.10;99.90
8709;DHT22;4391;48.678;9.280;2022-10-16T05:03:05;13.10;99.90
8709;DHT22;4391;48.678;9.280;2022-10-16T05:05:35;13.10;99.90
8709;DHT22;4391;48.678;9.280;2022-10-16T05:08:02;13.10;99.90
8709;DHT22;4391;48.678;9.280;2022-10-16T05:10:29;13.10;99.90
8709;DHT22;4391;48.678;9.280;2022-10-16T05:12:56;13.10;99.90
8709;DHT22;4391;48.678;9.280;2022-10-16T05:15:23;13.10;99.90
8709;DHT22;4391;48.678;9.280;2022-10-16T05:17:52;13.00;99.90
8709;DHT22;4391;48.678;9.280;2022-10-16T05:20:19;13.10;99.90
8709;DHT22;4391;48.678;9.280;2022-10-16T05:22:47;13.10;99.90
8709;DHT22;4391;48.678;9.280;2022-10-16T05:25:14;13.00;99.90
8709;DHT22;4391;48.678;9.280;2022-10-16T05:27:41;13.00;99.90
8709;DHT22;4391;48.678;9.280;2022-10-16T05:30:09;12.90;99.90
8709;DHT22;4391;48.678;9.280;2022-10-16T05:32:35;12.90;99.90
8709;DHT22;4391;48.678;9.280;2022-10-16T05:35:02;12.90;99.90
8709;DHT22;4391;48.678;9.280;2022-10-16T05:37:29;12.80;99.90
8709;DHT22;4391;48.678;9.280;2022-10-16T05:39:57;12.80;99.90
8709;DHT22;4391;48.678;9.280;2022-10-16T05:42:24;12.70;99.90
8709;DHT22;4391;48.678;9.280;2022-10-16T05:44:51;12.70;99.90
8709;DHT22;4391;48.678;9.280;2022-10-16T05:47:17;12.70;99.90
8709;DHT22;4391;48.678;9.280;2022-10-16T05:49:46;12.80;99.90
8709;DHT22;4391;48.678;9.280;2022-10-16T05:52:13;12.80;99.90
8709;DHT22;4391;48.678;9.280;2022-10-16T05:54:39;12.90;99.90
8709;DHT22;4391;48.678;9.280;2022-10-16T05:57:07;12.90;99.90
8709;DHT22;4391;48.678;9.280;2022-10-16T05:59:34;12.80;99.90
8709;DHT22;4391;48.678;9.280;2022-10-16T06:02:02;12.80;99.90
8709;DHT22;4391;48.678;9.280;2022-10-16T06:04:29;12.80;99.90
8709;DHT22;4391;48.678;9.280;2022-10-16T06:06:58;12.80;99.90
8709;DHT22;4391;48.678;9.280;2022-10-16T06:09:25;12.80;99.90
8709;DHT22;4391;48.678;9.280;2022-10-16T06:11:52;12.80;99.90
8709;DHT22;4391;48.678;9.280;2022-10-16T06:14:21;12.90;99.90
8709;DHT22;4391;48.678;9.280;2022-10-16T06:16:47;12.90;99.90
8709;DHT22;4391;48.678;9.280;2022-10-16T06:19:14;13.00;99.90
8709;DHT22;4391;48.678;9.280;2022-10-16T06:21:41;13.00;99.90
8709;DHT22;4391;48.678;9.280;2022-10-16T06:24:09;13.10;99.90
8709;DHT22;4391;48.678;9.280;2022-10-16T06:26:36;13.10;99.90
8709;DHT22;4391;48.678;9.280;2022-10-16T06:29:03;13.20;99.90
8709;DHT22;4391;48.678;9.280;2022-10-16T06:31:31;13.30;99.90
8709;DHT22;4391;48.678;9.280;2022-10-16T06:33:59;13.30;99.90
8709;DHT22;4391;48.678;9.280;2022-10-16T06:36:27;13.40;99.90
8709;DHT22;4391;48.678;9.280;2022-10-16T06:38:54;13.50;99.90
8709;DHT22;4391;48.678;9.280;2022-10-16T06:41:22;13.60;99.90
8709;DHT22;4391;48.678;9.280;2022-10-16T06:43:49;13.70;99.90
8709;DHT22;4391;48.678;9.280;2022-10-16T06:46:18;13.80;99.90
8709;DHT22;4391;48.678;9.280;2022-10-16T06:48:46;13.90;99.90
8709;DHT22;4391;48.678;9.280;2022-10-16T06:51:15;14.00;99.90
8709;DHT22;4391;48.678;9.280;2022-10-16T06:53:44;14.20;99.90
8709;DHT22;4391;48.678;9.280;2022-10-16T06:56:13;14.40;99.90
8709;DHT22;4391;48.678;9.280;2022-10-16T06:58:40;14.50;99.90
8709;DHT22;4391;48.678;9.280;2022-10-16T07:01:08;14.70;99.90
8709;DHT22;4391;48.678;9.280;2022-10-16T07:03:36;14.80;99.90
8709;DHT22;4391;48.678;9.280;2022-10-16T07:06:06;14.90;99.90
8709;DHT22;4391;48.678;9.280;2022-10-16T07:08:33;14.90;99.90
8709;DHT22;4391;48.678;9.280;2022-10-16T07:11:01;14.90;99.90
8709;DHT22;4391;48.678;9.280;2022-10-16T07:13:28;15.00;99.90
8709;DHT22;4391;48.678;9.280;2022-10-16T07:15:55;15.00;99.90
8709;DHT22;4391;48.678;9.280;2022-10-16T07:18:21;15.10;99.90
8709;DHT22;4391;48.678;9.280;2022-10-16T07:20:51;15.20;99.90
8709;DHT22;4391;48.678;9.280;2022-10-16T07:23:19;15.20;99.90
8709;DHT22;4391;48.678;9.280;2022-10-16T07:25:53;15.20;99.90
8709;DHT22;4391;48.678;9.280;2022-10-16T07:28:20;15.30;99.90
8709;DHT22;4391;48.678;9.280;2022-10-16T07:30:47;15.30;99.90
8709;DHT22;4391;48.678;9.280;2022-10-16T07:33:14;15.40;99.90
8709;DHT22;4391;48.678;9.280;2022-10-16T07:35:48;15.50;99.90
8709;DHT22;4391;48.678;9.280;2022-10-16T07:38:14;15.50;99.90
8709;DHT22;4391;48.678;9.280;2022-10-16T07:40:43;15.60;99.90
8709;DHT22;4391;48.678;9.280;2022-10-16T07:43:10;15.60;99.90
8709;DHT22;4391;48.678;9.280;2022-10-16T07:45:36;15.60;99.90
8709;DHT22;4391;48.678;9.280;2022-10-16T07:48:04;15.60;99.90
8709;DHT22;4391;48.678;9.280;2022-10-16T07:50:30;15.60;99.90
8709;DHT22;4391;48.678;9.280;2022-10-16T07:52:57;15.60;99.90
8709;DHT22;4391;48.678;9.280;2022-10-16T07:55:24;15.70;99.90
8709;DHT22;4391;48.678;9.280;2022-10-16T07:57:52;15.70;99.90
8709;DHT22;4391;48.678;9.280;2022-10-16T08:00:19;15.70;99.90
8709;DHT22;4391;48.678;9.280;2022-10-16T08:02:45;15.80;99.90
8709;DHT22;4391;48.678;9.280;2022-10-16T08:05:12;15.90;99.90
8709;DHT22;4391;48.678;9.280;2022-10-16T08:07:39;15.90;99.90
8709;DHT22;4391;48.678;9.280;2022-10-16T08:10:06;16.00;99.90
8709;DHT22;4391;48.678;9.280;2022-10-16T08:12:33;16.10;99.90
8709;DHT22;4391;48.678;9.280;2022-10-16T08:15:01;16.10;99.90
8709;DHT22;4391;48.678;9.280;2022-10-16T08:17:28;16.20;99.90
8709;DHT22;4391;48.678;9.280;2022-10-16T08:19:55;16.20;99.90
8709;DHT22;4391;48.678;9.280;2022-10-16T08:22:21;16.20;99.90
8709;DHT22;4391;48.678;9.280;2022-10-16T08:24:48;16.20;99.90
8709;DHT22;4391;48.678;9.280;2022-10-16T08:27:15;16.40;99.90
8709;DHT22;4391;48.678;9.280;2022-10-16T08:29:42;16.50;99.90
8709;DHT22;4391;48.678;9.280;2022-10-16T08:32:10;16.70;99.90
8709;DHT22;4391;48.678;9.280;2022-10-16T08:34:37;17.00;99.90
8709;DHT22;4391;48.678;9.280;2022-10-16T08:37:03;17.20;99.90
8709;DHT22;4391;48.678;9.280;2022-10-16T08:39:30;17.70;79.40
8709;DHT22;4391;48.678;9.280;2022-10-16T08:42:10;18.10;42.20
8709;DHT22;4391;48.678;9.280;2022-10-16T08:45:01;18.30;26.10
8709;DHT22;4391;48.678;9.280;2022-10-16T08:47:46;18.50;13.00
8709;DHT22;4391;48.678;9.280;2022-10-16T08:50:21;18.70;4.00
8709;DHT22;4391;48.678;9.280;2022-10-16T08:52:49;18.70;2.60
8709;DHT22;4391;48.678;9.280;2022-10-16T08:55:28;18.70;1.00
8709;DHT22;4391;48.678;9.280;2022-10-16T08:57:57;18.70;1.00
8709;DHT22;4391;48.678;9.280;2022-10-16T09:00:25;18.70;1.00
8709;DHT22;4391;48.678;9.280;2022-10-16T09:02:59;18.70;1.00
8709;DHT22;4391;48.678;9.280;2022-10-16T09:05:44;18.70;13.00
8709;DHT22;4391;48.678;9.280;2022-10-16T09:08:22;18.70;22.20
8709;DHT22;4391;48.678;9.280;2022-10-16T09:10:57;18.70;34.90
8709;DHT22;4391;48.678;9.280;2022-10-16T09:13:28;18.90;24.50
8709;DHT22;4391;48.678;9.280;2022-10-16T09:16:01;19.20;19.10
8709;DHT22;4391;48.678;9.280;2022-10-16T09:18:39;19.50;1.00
8709;DHT22;4391;48.678;9.280;2022-10-16T09:21:10;19.70;1.00
8709;DHT22;4391;48.678;9.280;2022-10-16T09:23:40;19.80;1.00
8709;DHT22;4391;48.678;9.280;2022-10-16T09:26:12;19.80;1.00
8709;DHT22;4391;48.678;9.280;2022-10-16T09:28:39;19.90;1.00
8709;DHT22;4391;48.678;9.280;2022-10-16T09:31:13;19.90;42.70
8709;DHT22;4391;48.678;9.280;2022-10-16T09:33:44;19.90;1.00
8709;DHT22;4391;48.678;9.280;2022-10-16T09:36:13;20.00;1.00
8709;DHT22;4391;48.678;9.280;2022-10-16T09:38:40;20.00;1.00
8709;DHT22;4391;48.678;9.280;2022-10-16T09:41:15;20.30;1.00
8709;DHT22;4391;48.678;9.280;2022-10-16T09:43:47;20.80;1.00
8709;DHT22;4391;48.678;9.280;2022-10-16T09:46:25;21.20;1.00
8709;DHT22;4391;48.678;9.280;2022-10-16T09:48:56;21.90;1.00
8709;DHT22;4391;48.678;9.280;2022-10-16T09:51:27;22.60;1.00
8709;DHT22;4391;48.678;9.280;2022-10-16T09:53:56;22.60;1.00
8709;DHT22;4391;48.678;9.280;2022-10-16T09:56:25;23.20;1.00
8709;DHT22;4391;48.678;9.280;2022-10-16T09:58:53;23.10;1.00
8709;DHT22;4391;48.678;9.280;2022-10-16T10:01:21;22.50;1.00
8709;DHT22;4391;48.678;9.280;2022-10-16T10:03:48;22.40;1.00
8709;DHT22;4391;48.678;9.280;2022-10-16T10:06:25;22.50;1.00
8709;DHT22;4391;48.678;9.280;2022-10-16T10:09:02;22.90;1.60
8709;DHT22;4391;48.678;9.280;2022-10-16T10:11:44;23.00;1.00
8709;DHT22;4391;48.678;9.280;2022-10-16T10:14:27;23.40;1.00
8709;DHT22;4391;48.678;9.280;2022-10-16T10:17:10;24.00;1.00
8709;DHT22;4391;48.678;9.280;2022-10-16T10:19:39;24.90;1.00
8709;DHT22;4391;48.678;9.280;2022-10-16T10:22:17;25.80;1.00
8709;DHT22;4391;48.678;9.280;2022-10-16T10:24:44;26.50;1.00
8709;DHT22;4391;48.678;9.280;2022-10-16T10:27:14;26.70;1.00
8709;DHT22;4391;48.678;9.280;2022-10-16T10:29:53;26.40;99.90
8709;DHT22;4391;48.678;9.280;2022-10-16T10:32:28;26.50;99.90
8709;DHT22;4391;48.678;9.280;2022-10-16T10:35:07;27.10;99.90
8709;DHT22;4391;48.678;9.280;2022-10-16T10:37:55;27.80;99.90
8709;DHT22;4391;48.678;9.280;2022-10-16T10:40:34;28.20;99.90
8709;DHT22;4391;48.678;9.280;2022-10-16T10:43:13;27.60;99.90
8709;DHT22;4391;48.678;9.280;2022-10-16T10:45:44;27.20;99.90
8709;DHT22;4391;48.678;9.280;2022-10-16T10:48:24;27.70;99.90
8709;DHT22;4391;48.678;9.280;2022-10-16T10:50:57;27.30;99.90
8709;DHT22;4391;48.678;9.280;2022-10-16T10:53:33;28.00;99.90
8709;DHT22;4391;48.678;9.280;2022-10-16T10:56:14;28.60;99.90
8709;DHT22;4391;48.678;9.280;2022-10-16T10:58:53;28.70;99.90
8709;DHT22;4391;48.678;9.280;2022-10-16T11:01:28;28.60;99.90
8709;DHT22;4391;48.678;9.280;2022-10-16T11:04:08;28.70;99.90
8709;DHT22;4391;48.678;9.280;2022-10-16T11:06:43;29.70;99.90
8709;DHT22;4391;48.678;9.280;2022-10-16T11:09:17;29.90;99.90
8709;DHT22;4391;48.678;9.280;2022-10-16T11:11:48;30.30;99.90
8709;DHT22;4391;48.678;9.280;2022-10-16T11:14:19;30.50;99.90
8709;DHT22;4391;48.678;9.280;2022-10-16T11:16:51;30.30;99.90
8709;DHT22;4391;48.678;9.280;2022-10-16T11:19:26;30.50;99.90
8709;DHT22;4391;48.678;9.280;2022-10-16T11:22:01;30.30;99.90
8709;DHT22;4391;48.678;9.280;2022-10-16T11:24:37;30.60;99.90
8709;DHT22;4391;48.678;9.280;2022-10-16T11:27:09;30.50;99.90
8709;DHT22;4391;48.678;9.280;2022-10-16T11:29:45;28.90;99.90
8709;DHT22;4391;48.678;9.280;2022-10-16T11:32:21;28.20;99.90
8709;DHT22;4391;48.678;9.280;2022-10-16T11:34:51;27.70;99.90
8709;DHT22;4391;48.678;9.280;2022-10-16T11:37:23;27.30;99.90
8709;DHT22;4391;48.678;9.280;2022-10-16T11:39:57;27.10;99.90
8709;DHT22;4391;48.678;9.280;2022-10-16T11:42:32;27.00;99.90
8709;DHT22;4391;48.678;9.280;2022-10-16T11:45:13;27.30;99.90
8709;DHT22;4391;48.678;9.280;2022-10-16T11:47:50;27.70;99.90
8709;DHT22;4391;48.678;9.280;2022-10-16T11:50:22;28.70;99.90
8709;DHT22;4391;48.678;9.280;2022-10-16T11:52:55;30.20;99.90
8709;DHT22;4391;48.678;9.280;2022-10-16T11:55:31;31.40;99.90
8709;DHT22;4391;48.678;9.280;2022-10-16T11:58:02;32.30;99.90
8709;DHT22;4391;48.678;9.280;2022-10-16T12:00:34;33.20;99.90
8709;DHT22;4391;48.678;9.280;2022-10-16T12:03:11;34.40;99.90
8709;DHT22;4391;48.678;9.280;2022-10-16T12:05:55;34.30;99.90
8709;DHT22;4391;48.678;9.280;2022-10-16T12:08:25;34.60;99.90
8709;DHT22;4391;48.678;9.280;2022-10-16T12:10:53;34.90;99.90
8709;DHT22;4391;48.678;9.280;2022-10-16T12:13:29;34.60;99.90
8709;DHT22;4391;48.678;9.280;2022-10-16T12:16:19;34.30;99.90
8709;DHT22;4391;48.678;9.280;2022-10-16T12:18:47;33.80;99.90
8709;DHT22;4391;48.678;9.280;2022-10-16T12:21:16;34.10;99.90
8709;DHT22;4391;48.678;9.280;2022-10-16T12:23:48;33.90;99.90
8709;DHT22;4391;48.678;9.280;2022-10-16T12:26:25;33.00;99.90
8709;DHT22;4391;48.678;9.280;2022-10-16T12:28:53;32.30;99.90
8709;DHT22;4391;48.678;9.280;2022-10-16T12:31:20;32.30;99.90
8709;DHT22;4391;48.678;9.280;2022-10-16T12:33:57;32.80;99.90
8709;DHT22;4391;48.678;9.280;2022-10-16T12:36:29;33.70;99.90
8709;DHT22;4391;48.678;9.280;2022-10-16T12:38:57;35.30;99.90
8709;DHT22;4391;48.678;9.280;2022-10-16T12:41:27;35.90;99.90
8709;DHT22;4391;48.678;9.280;2022-10-16T12:43:54;35.80;99.90
8709;DHT22;4391;48.678;9.280;2022-10-16T12:46:24;34.40;99.90
8709;DHT22;4391;48.678;9.280;2022-10-16T12:49:06;33.10;99.90
8709;DHT22;4391;48.678;9.280;2022-10-16T12:51:36;32.30;99.90
8709;DHT22;4391;48.678;9.280;2022-10-16T12:54:04;32.80;99.90
8709;DHT22;4391;48.678;9.280;2022-10-16T12:56:48;33.50;99.90
8709;DHT22;4391;48.678;9.280;2022-10-16T12:59:24;33.20;99.90
8709;DHT22;4391;48.678;9.280;2022-10-16T13:04:53;31.10;99.90
8709;DHT22;4391;48.678;9.280;2022-10-16T13:07:37;29.70;99.90
8709;DHT22;4391;48.678;9.280;2022-10-16T13:10:17;29.00;99.90
8709;DHT22;4391;48.678;9.280;2022-10-16T13:13:06;28.70;99.90
8709;DHT22;4391;48.678;9.280;2022-10-16T13:15:53;29.00;99.90
8709;DHT22;4391;48.678;9.280;2022-10-16T13:18:29;30.60;99.90
8709;DHT22;4391;48.678;9.280;2022-10-16T13:21:12;32.00;99.90
8709;DHT22;4391;48.678;9.280;2022-10-16T13:23:47;33.80;99.90
8709;DHT22;4391;48.678;9.280;2022-10-16T13:26:23;35.20;99.90
8709;DHT22;4391;48.678;9.280;2022-10-16T13:28:59;35.50;99.90
8709;DHT22;4391;48.678;9.280;2022-10-16T13:31:25;35.30;99.90
8709;DHT22;4391;48.678;9.280;2022-10-16T13:33:55;35.30;99.90
8709;DHT22;4391;48.678;9.280;2022-10-16T13:36:25;35.30;99.90
8709;DHT22;4391;48.678;9.280;2022-10-16T13:39:10;35.80;99.90
8709;DHT22;4391;48.678;9.280;2022-10-16T13:41:38;36.10;99.90
8709;DHT22;4391;48.678;9.280;2022-10-16T13:44:12;36.70;99.90
8709;DHT22;4391;48.678;9.280;2022-10-16T13:46:40;36.00;99.90
8709;DHT22;4391;48.678;9.280;2022-10-16T13:49:12;34.90;99.90
8709;DHT22;4391;48.678;9.280;2022-10-16T13:51:39;33.40;99.90
8709;DHT22;4391;48.678;9.280;2022-10-16T13:54:09;32.00;99.90
8709;DHT22;4391;48.678;9.280;2022-10-16T13:56:38;30.80;99.90
8709;DHT22;4391;48.678;9.280;2022-10-16T13:59:23;29.80;99.90
8709;DHT22;4391;48.678;9.280;2022-10-16T14:01:52;29.20;99.90
8709;DHT22;4391;48.678;9.280;2022-10-16T14:04:20;28.60;99.90
8709;DHT22;4391;48.678;9.280;2022-10-16T14:06:50;28.20;99.90
8709;DHT22;4391;48.678;9.280;2022-10-16T14:09:22;27.80;99.90
8709;DHT22;4391;48.678;9.280;2022-10-16T14:11:51;27.50;99.90
8709;DHT22;4391;48.678;9.280;2022-10-16T14:14:20;27.20;99.90
8709;DHT22;4391;48.678;9.280;2022-10-16T14:16:48;26.90;99.90
8709;DHT22;4391;48.678;9.280;2022-10-16T14:19:19;26.90;99.90
8709;DHT22;4391;48.678;9.280;2022-10-16T14:21:47;27.10;99.90
8709;DHT22;4391;48.678;9.280;2022-10-16T14:24:24;27.20;99.90
8709;DHT22;4391;48.678;9.280;2022-10-16T14:26:51;27.50;99.90
8709;DHT22;4391;48.678;9.280;2022-10-16T14:29:22;27.60;99.90
8709;DHT22;4391;48.678;9.280;2022-10-16T14:31:55;27.40;99.90
8709;DHT22;4391;48.678;9.280;2022-10-16T14:34:28;27.10;99.90
8709;DHT22;4391;48.678;9.280;2022-10-16T14:36:56;26.80;99.90
8709;DHT22;4391;48.678;9.280;2022-10-16T14:39:24;26.50;99.90
8709;DHT22;4391;48.678;9.280;2022-10-16T14:41:52;26.30;99.90
8709;DHT22;4391;48.678;9.280;2022-10-16T14:44:27;26.00;99.90
8709;DHT22;4391;48.678;9.280;2022-10-16T14:46:55;25.80;99.90
8709;DHT22;4391;48.678;9.280;2022-10-16T14:49:23;25.60;99.90
8709;DHT22;4391;48.678;9.280;2022-10-16T14:51:50;25.40;99.90
8709;DHT22;4391;48.678;9.280;2022-10-16T14:54:18;25.40;99.90
8709;DHT22;4391;48.678;9.280;2022-10-16T14:56:48;25.40;99.90
8709;DHT22;4391;48.678;9.280;2022-10-16T14:59:27;25.40;99.90
8709;DHT22;4391;48.678;9.280;2022-10-16T15:01:57;25.30;99.90
8709;DHT22;4391;48.678;9.280;2022-10-16T15:04:24;25.40;99.90
8709;DHT22;4391;48.678;9.280;2022-10-16T15:06:50;25.50;99.90
8709;DHT22;4391;48.678;9.280;2022-10-16T15:09:17;25.60;99.90
8709;DHT22;4391;48.678;9.280;2022-10-16T15:11:44;25.50;99.90
8709;DHT22;4391;48.678;9.280;2022-10-16T15:14:12;25.20;99.90
8709;DHT22;4391;48.678;9.280;2022-10-16T15:16:39;25.10;99.90
8709;DHT22;4391;48.678;9.280;2022-10-16T15:19:07;25.00;99.90
8709;DHT22;4391;48.678;9.280;2022-10-16T15:21:34;24.90;99.90
8709;DHT22;4391;48.678;9.280;2022-10-16T15:24:01;24.80;99.90
8709;DHT22;4391;48.678;9.280;2022-10-16T15:26:28;24.60;99.90
8709;DHT22;4391;48.678;9.280;2022-10-16T15:28:55;24.50;99.90
8709;DHT22;4391;48.678;9.280;2022-10-16T15:31:23;24.60;99.90
8709;DHT22;4391;48.678;9.280;2022-10-16T15:33:50;25.00;99.90
8709;DHT22;4391;48.678;9.280;2022-10-16T15:36:26;25.40;99.90
8709;DHT22;4391;48.678;9.280;2022-10-16T15:38:53;25.80;99.90
8709;DHT22;4391;48.678;9.280;2022-10-16T15:41:20;25.90;99.90
8709;DHT22;4391;48.678;9.280;2022-10-16T15:43:48;25.60;99.90
8709;DHT22;4391;48.678;9.280;2022-10-16T15:46:18;25.20;99.90
8709;DHT22;4391;48.678;9.280;2022-10-16T15:48:45;24.60;99.90
8709;DHT22;4391;48.678;9.280;2022-10-16T15:51:11;24.00;99.90
8709;DHT22;4391;48.678;9.280;2022-10-16T15:53:39;23.50;1.00
8709;DHT22;4391;48.678;9.280;2022-10-16T15:56:08;23.00;1.00
8709;DHT22;4391;48.678;9.280;2022-10-16T15:58:35;22.60;96.00
8709;DHT22;4391;48.678;9.280;2022-10-16T16:01:02;22.20;99.90
8709;DHT22;4391;48.678;9.280;2022-10-16T16:03:30;21.90;99.90
8709;DHT22;4391;48.678;9.280;2022-10-16T16:05:58;21.60;1.00
8709;DHT22;4391;48.678;9.280;2022-10-16T16:08:25;21.40;99.90
8709;DHT22;4391;48.678;9.280;2022-10-16T16:11:00;21.10;20.10
8709;DHT22;4391;48.678;9.280;2022-10-16T16:13:27;20.90;99.90
8709;DHT22;4391;48.678;9.280;2022-10-16T16:15:54;20.70;99.90
8709;DHT22;4391;48.678;9.280;2022-10-16T16:18:21;20.60;99.90
8709;DHT22;4391;48.678;9.280;2022-10-16T16:20:49;20.40;99.90
8709;DHT22;4391;48.678;9.280;2022-10-16T16:23:15;20.30;1.00